sensor_id;sensor_type;location;lat;lon;timestamp;temperature;humidity
74224;SHT31;62585;49.706;18.216;2023-09-18T00:01:06;18.72;75.14
74224;SHT31;62585;49.706;18.216;2023-09-18T00:03:39;18.76;75.08
74224;SHT31;62585;49.706;18.216;2023-09-18T00:06:05;18.83;74.74
74224;SHT31;62585;49.706;18.216;2023-09-18T00:08:31;18.88;74.63
74224;SHT31;62585;49.706;18.216;2023-09-18T00:10:57;18.86;74.77
74224;SHT31;62585;49.706;18.216;2023-09-18T00:13:23;18.89;74.29
74224;SHT31;62585;49.706;18.216;2023-09-18T00:15:49;18.95;74.20
74224;SHT31;62585;49.706;18.216;2023-09-18T00:18:17;18.92;74.00
74224;SHT31;62585;49.706;18.216;2023-09-18T00:20:43;18.90;74.37
74224;SHT31;62585;49.706;18.216;2023-09-18T00:23:09;18.73;75.03
74224;SHT31;62585;49.706;18.216;2023-09-18T00:25:35;18.59;75.24
74224;SHT31;62585;49.706;18.216;2023-09-18T00:28:03;18.63;75.25
74224;SHT31;62585;49.706;18.216;2023-09-18T00:30:28;18.62;75.19
74224;SHT31;62585;49.706;18.216;2023-09-18T00:32:54;18.56;75.83
74224;SHT31;62585;49.706;18.216;2023-09-18T00:35:20;18.59;75.57
74224;SHT31;62585;49.706;18.216;2023-09-18T00:37:48;18.41;76.06
74224;SHT31;62585;49.706;18.216;2023-09-18T00:40:13;18.34;76.02
74224;SHT31;62585;49.706;18.216;2023-09-18T00:42:39;18.24;76.68
74224;SHT31;62585;49.706;18.216;2023-09-18T00:45:05;18.37;76.08
74224;SHT31;62585;49.706;18.216;2023-09-18T00:47:31;18.21;76.41
74224;SHT31;62585;49.706;18.216;2023-09-18T00:49:57;18.13;76.77
74224;SHT31;62585;49.706;18.216;2023-09-18T00:52:24;18.17;76.08
74224;SHT31;62585;49.706;18.216;2023-09-18T00:54:51;18.17;76.37
74224;SHT31;62585;49.706;18.216;2023-09-18T00:57:18;18.28;75.49
74224;SHT31;62585;49.706;18.216;2023-09-18T00:59:44;18.23;75.74
74224;SHT31;62585;49.706;18.216;2023-09-18T01:02:10;18.30;75.45
74224;SHT31;62585;49.706;18.216;2023-09-18T01:04:37;18.17;76.01
74224;SHT31;62585;49.706;18.216;2023-09-18T01:07:03;18.05;76.24
74224;SHT31;62585;49.706;18.216;2023-09-18T01:09:32;17.98;76.93
74224;SHT31;62585;49.706;18.216;2023-09-18T01:12:08;17.86;77.50
74224;SHT31;62585;49.706;18.216;2023-09-18T01:14:46;17.73;77.65
74224;SHT31;62585;49.706;18.216;2023-09-18T01:17:16;17.73;77.82
74224;SHT31;62585;49.706;18.216;2023-09-18T01:19:42;17.67;78.04
74224;SHT31;62585;49.706;18.216;2023-09-18T01:22:10;17.69;78.18
74224;SHT31;62585;49.706;18.216;2023-09-18T01:24:38;17.70;78.46
74224;SHT31;62585;49.706;18.216;2023-09-18T01:27:06;17.80;78.25
74224;SHT31;62585;49.706;18.216;2023-09-18T01:29:32;17.86;77.76
74224;SHT31;62585;49.706;18.216;2023-09-18T01:31:57;17.84;77.25
74224;SHT31;62585;49.706;18.216;2023-09-18T01:34:29;17.91;77.14
74224;SHT31;62585;49.706;18.216;2023-09-18T01:37:00;17.84;77.53
74224;SHT31;62585;49.706;18.216;2023-09-18T01:39:28;17.94;77.29
74224;SHT31;62585;49.706;18.216;2023-09-18T01:41:59;17.91;77.66
74224;SHT31;62585;49.706;18.216;2023-09-18T01:44:25;17.84;77.60
74224;SHT31;62585;49.706;18.216;2023-09-18T01:46:52;17.69;77.81
74224;SHT31;62585;49.706;18.216;2023-09-18T01:49:35;17.82;77.79
74224;SHT31;62585;49.706;18.216;2023-09-18T01:52:03;17.67;78.00
74224;SHT31;62585;49.706;18.216;2023-09-18T01:54:30;17.63;77.62
74224;SHT31;62585;49.706;18.216;2023-09-18T01:56:56;17.73;77.09
74224;SHT31;62585;49.706;18.216;2023-09-18T01:59:22;17.70;77.16
74224;SHT31;62585;49.706;18.216;2023-09-18T02:01:49;17.69;77.08
74224;SHT31;62585;49.706;18.216;2023-09-18T02:04:15;17.69;77.03
74224;SHT31;62585;49.706;18.216;2023-09-18T02:06:41;17.62;76.94
74224;SHT31;62585;49.706;18.216;2023-09-18T02:09:07;17.59;77.06
74224;SHT31;62585;49.706;18.216;2023-09-18T02:11:38;17.72;76.78
74224;SHT31;62585;49.706;18.216;2023-09-18T02:14:04;17.67;76.67
74224;SHT31;62585;49.706;18.216;2023-09-18T02:16:37;17.61;77.61
74224;SHT31;62585;49.706;18.216;2023-09-18T02:19:03;17.70;77.46
74224;SHT31;62585;49.706;18.216;2023-09-18T02:21:30;17.70;77.07
74224;SHT31;62585;49.706;18.216;2023-09-18T02:23:56;17.63;77.89
74224;SHT31;62585;49.706;18.216;2023-09-18T02:26:23;17.62;77.39
74224;SHT31;62585;49.706;18.216;2023-09-18T02:28:51;17.49;77.44
74224;SHT31;62585;49.706;18.216;2023-09-18T02:31:17;17.36;77.41
74224;SHT31;62585;49.706;18.216;2023-09-18T02:33:43;17.34;77.82
74224;SHT31;62585;49.706;18.216;2023-09-18T02:36:09;17.40;77.27
74224;SHT31;62585;49.706;18.216;2023-09-18T02:38:34;17.17;78.04
74224;SHT31;62585;49.706;18.216;2023-09-18T02:41:00;17.08;77.80
74224;SHT31;62585;49.706;18.216;2023-09-18T02:43:26;17.18;77.88
74224;SHT31;62585;49.706;18.216;2023-09-18T02:45:52;17.10;78.03
74224;SHT31;62585;49.706;18.216;2023-09-18T02:48:18;17.11;78.34
74224;SHT31;62585;49.706;18.216;2023-09-18T02:50:45;16.98;78.44
74224;SHT31;62585;49.706;18.216;2023-09-18T02:53:21;17.03;78.25
74224;SHT31;62585;49.706;18.216;2023-09-18T02:55:52;17.07;78.19
74224;SHT31;62585;49.706;18.216;2023-09-18T02:58:19;16.97;78.03
74224;SHT31;62585;49.706;18.216;2023-09-18T03:00:47;16.69;78.61
74224;SHT31;62585;49.706;18.216;2023-09-18T03:03:14;16.80;79.54
74224;SHT31;62585;49.706;18.216;2023-09-18T03:05:41;16.83;79.06
74224;SHT31;62585;49.706;18.216;2023-09-18T03:08:08;16.95;78.86
74224;SHT31;62585;49.706;18.216;2023-09-18T03:10:36;16.90;79.85
74224;SHT31;62585;49.706;18.216;2023-09-18T03:13:03;17.00;79.13
74224;SHT31;62585;49.706;18.216;2023-09-18T03:15:29;16.98;78.65
74224;SHT31;62585;49.706;18.216;2023-09-18T03:17:58;17.00;79.26
74224;SHT31;62585;49.706;18.216;2023-09-18T03:20:25;16.95;79.15
74224;SHT31;62585;49.706;18.216;2023-09-18T03:22:54;17.03;78.73
74224;SHT31;62585;49.706;18.216;2023-09-18T03:25:20;17.01;79.17
74224;SHT31;62585;49.706;18.216;2023-09-18T03:27:47;16.87;79.16
74224;SHT31;62585;49.706;18.216;2023-09-18T03:30:13;16.71;80.66
74224;SHT31;62585;49.706;18.216;2023-09-18T03:32:44;16.83;80.24
74224;SHT31;62585;49.706;18.216;2023-09-18T03:35:10;16.84;80.28
74224;SHT31;62585;49.706;18.216;2023-09-18T03:37:46;16.76;80.89
74224;SHT31;62585;49.706;18.216;2023-09-18T03:40:13;17.03;79.47
74224;SHT31;62585;49.706;18.216;2023-09-18T03:42:39;16.85;80.25
74224;SHT31;62585;49.706;18.216;2023-09-18T03:45:06;16.84;80.25
74224;SHT31;62585;49.706;18.216;2023-09-18T03:47:34;16.88;79.61
74224;SHT31;62585;49.706;18.216;2023-09-18T03:50:02;16.70;80.24
74224;SHT31;62585;49.706;18.216;2023-09-18T03:52:27;16.79;80.38
74224;SHT31;62585;49.706;18.216;2023-09-18T03:54:53;16.69;79.88
74224;SHT31;62585;49.706;18.216;2023-09-18T03:57:19;16.79;79.97
74224;SHT31;62585;49.706;18.216;2023-09-18T03:59:45;16.71;80.69
74224;SHT31;62585;49.706;18.216;2023-09-18T04:02:10;16.79;80.34
74224;SHT31;62585;49.706;18.216;2023-09-18T04:04:36;16.88;80.23
74224;SHT31;62585;49.706;18.216;2023-09-18T04:07:05;16.95;78.99
74224;SHT31;62585;49.706;18.216;2023-09-18T04:09:32;16.91;79.48
74224;SHT31;62585;49.706;18.216;2023-09-18T04:11:58;16.91;79.06
74224;SHT31;62585;49.706;18.216;2023-09-18T04:14:24;17.08;78.40
74224;SHT31;62585;49.706;18.216;2023-09-18T04:16:50;16.98;79.44
74224;SHT31;62585;49.706;18.216;2023-09-18T04:19:16;16.81;78.99
74224;SHT31;62585;49.706;18.216;2023-09-18T04:21:41;16.84;79.25
74224;SHT31;62585;49.706;18.216;2023-09-18T04:24:07;16.87;78.72
74224;SHT31;62585;49.706;18.216;2023-09-18T04:26:33;16.90;78.95
74224;SHT31;62585;49.706;18.216;2023-09-18T04:29:00;16.70;79.67
74224;SHT31;62585;49.706;18.216;2023-09-18T04:31:27;16.67;79.07
74224;SHT31;62585;49.706;18.216;2023-09-18T04:33:53;16.67;79.51
74224;SHT31;62585;49.706;18.216;2023-09-18T04:36:19;16.84;78.89
74224;SHT31;62585;49.706;18.216;2023-09-18T04:38:45;16.74;79.42
74224;SHT31;62585;49.706;18.216;2023-09-18T04:41:13;16.73;79.94
74224;SHT31;62585;49.706;18.216;2023-09-18T04:43:40;16.83;79.78
74224;SHT31;62585;49.706;18.216;2023-09-18T04:46:08;16.88;79.82
74224;SHT31;62585;49.706;18.216;2023-09-18T04:48:34;16.83;79.86
74224;SHT31;62585;49.706;18.216;2023-09-18T04:51:01;16.94;79.58
74224;SHT31;62585;49.706;18.216;2023-09-18T04:53:27;16.80;80.39
74224;SHT31;62585;49.706;18.216;2023-09-18T04:55:53;16.92;79.60
74224;SHT31;62585;49.706;18.216;2023-09-18T04:58:20;16.98;79.86
74224;SHT31;62585;49.706;18.216;2023-09-18T05:00:45;17.00;79.67
74224;SHT31;62585;49.706;18.216;2023-09-18T05:03:14;17.01;79.73
74224;SHT31;62585;49.706;18.216;2023-09-18T05:05:40;17.22;79.20
74224;SHT31;62585;49.706;18.216;2023-09-18T05:08:07;17.25;79.62
74224;SHT31;62585;49.706;18.216;2023-09-18T05:10:36;17.31;79.72
74224;SHT31;62585;49.706;18.216;2023-09-18T05:13:03;17.24;80.02
74224;SHT31;62585;49.706;18.216;2023-09-18T05:15:29;17.39;79.48
74224;SHT31;62585;49.706;18.216;2023-09-18T05:17:56;17.35;79.83
74224;SHT31;62585;49.706;18.216;2023-09-18T05:20:24;17.17;80.19
74224;SHT31;62585;49.706;18.216;2023-09-18T05:22:52;17.36;79.73
74224;SHT31;62585;49.706;18.216;2023-09-18T05:25:25;17.50;79.48
74224;SHT31;62585;49.706;18.216;2023-09-18T05:27:53;17.39;80.08
74224;SHT31;62585;49.706;18.216;2023-09-18T05:30:33;17.29;80.30
74224;SHT31;62585;49.706;18.216;2023-09-18T05:33:02;17.49;79.99
74224;SHT31;62585;49.706;18.216;2023-09-18T05:35:33;17.52;80.06
74224;SHT31;62585;49.706;18.216;2023-09-18T05:38:00;17.45;78.82
74224;SHT31;62585;49.706;18.216;2023-09-18T05:40:26;17.43;78.76
74224;SHT31;62585;49.706;18.216;2023-09-18T05:42:53;17.62;79.01
74224;SHT31;62585;49.706;18.216;2023-09-18T05:45:19;17.73;79.09
74224;SHT31;62585;49.706;18.216;2023-09-18T05:47:45;17.70;79.53
74224;SHT31;62585;49.706;18.216;2023-09-18T05:50:12;17.77;79.44
74224;SHT31;62585;49.706;18.216;2023-09-18T05:52:46;17.80;79.17
74224;SHT31;62585;49.706;18.216;2023-09-18T05:55:14;18.01;79.37
74224;SHT31;62585;49.706;18.216;2023-09-18T05:57:40;18.11;79.29
74224;SHT31;62585;49.706;18.216;2023-09-18T06:00:07;18.31;78.96
74224;SHT31;62585;49.706;18.216;2023-09-18T06:02:33;18.51;78.70
74224;SHT31;62585;49.706;18.216;2023-09-18T06:04:59;18.51;79.37
74224;SHT31;62585;49.706;18.216;2023-09-18T06:07:29;18.56;79.08
74224;SHT31;62585;49.706;18.216;2023-09-18T06:09:58;18.49;79.61
74224;SHT31;62585;49.706;18.216;2023-09-18T06:12:24;18.76;78.67
74224;SHT31;62585;49.706;18.216;2023-09-18T06:14:51;19.04;78.32
74224;SHT31;62585;49.706;18.216;2023-09-18T06:17:18;18.97;78.23
74224;SHT31;62585;49.706;18.216;2023-09-18T06:19:45;19.00;78.43
74224;SHT31;62585;49.706;18.216;2023-09-18T06:22:12;19.26;77.96
74224;SHT31;62585;49.706;18.216;2023-09-18T06:24:37;19.48;77.94
74224;SHT31;62585;49.706;18.216;2023-09-18T06:27:04;19.57;77.56
74224;SHT31;62585;49.706;18.216;2023-09-18T06:29:30;19.82;76.91
74224;SHT31;62585;49.706;18.216;2023-09-18T06:31:57;19.96;76.89
74224;SHT31;62585;49.706;18.216;2023-09-18T06:34:23;19.87;76.72
74224;SHT31;62585;49.706;18.216;2023-09-18T06:36:49;19.74;77.96
74224;SHT31;62585;49.706;18.216;2023-09-18T06:39:15;20.08;77.26
74224;SHT31;62585;49.706;18.216;2023-09-18T06:41:41;20.22;76.88
74224;SHT31;62585;49.706;18.216;2023-09-18T06:44:06;20.27;76.79
74224;SHT31;62585;49.706;18.216;2023-09-18T06:46:33;20.47;76.25
74224;SHT31;62585;49.706;18.216;2023-09-18T06:48:59;20.54;76.18
74224;SHT31;62585;49.706;18.216;2023-09-18T06:51:29;20.64;75.40
74224;SHT31;62585;49.706;18.216;2023-09-18T06:53:55;20.99;74.99
74224;SHT31;62585;49.706;18.216;2023-09-18T06:56:24;21.15;74.72
74224;SHT31;62585;49.706;18.216;2023-09-18T06:58:50;20.88;73.51
74224;SHT31;62585;49.706;18.216;2023-09-18T07:01:20;21.08;74.51
74224;SHT31;62585;49.706;18.216;2023-09-18T07:03:47;21.22;73.16
74224;SHT31;62585;49.706;18.216;2023-09-18T07:06:16;21.12;73.91
74224;SHT31;62585;49.706;18.216;2023-09-18T07:08:46;21.39;73.11
74224;SHT31;62585;49.706;18.216;2023-09-18T07:11:12;21.63;72.43
74224;SHT31;62585;49.706;18.216;2023-09-18T07:13:38;21.75;71.89
74224;SHT31;62585;49.706;18.216;2023-09-18T07:16:06;21.68;72.07
74224;SHT31;62585;49.706;18.216;2023-09-18T07:18:31;21.80;71.74
74224;SHT31;62585;49.706;18.216;2023-09-18T07:20:58;21.90;71.34
74224;SHT31;62585;49.706;18.216;2023-09-18T07:23:24;22.23;70.52
74224;SHT31;62585;49.706;18.216;2023-09-18T07:25:50;22.22;70.16
74224;SHT31;62585;49.706;18.216;2023-09-18T07:28:16;22.55;70.84
74224;SHT31;62585;49.706;18.216;2023-09-18T07:30:44;22.49;69.29
74224;SHT31;62585;49.706;18.216;2023-09-18T07:33:11;22.39;68.80
74224;SHT31;62585;49.706;18.216;2023-09-18T07:35:37;22.57;68.48
74224;SHT31;62585;49.706;18.216;2023-09-18T07:38:04;22.79;69.11
74224;SHT31;62585;49.706;18.216;2023-09-18T07:40:30;22.94;69.13
74224;SHT31;62585;49.706;18.216;2023-09-18T07:42:55;23.14;68.43
74224;SHT31;62585;49.706;18.216;2023-09-18T07:45:23;23.24;67.17
74224;SHT31;62585;49.706;18.216;2023-09-18T07:47:48;23.67;67.76
74224;SHT31;62585;49.706;18.216;2023-09-18T07:50:14;23.61;66.67
74224;SHT31;62585;49.706;18.216;2023-09-18T07:52:40;23.89;66.47
74224;SHT31;62585;49.706;18.216;2023-09-18T07:55:07;24.16;66.52
74224;SHT31;62585;49.706;18.216;2023-09-18T07:57:32;24.11;66.37
74224;SHT31;62585;49.706;18.216;2023-09-18T08:00:00;24.24;66.11
74224;SHT31;62585;49.706;18.216;2023-09-18T08:02:33;24.42;66.53
74224;SHT31;62585;49.706;18.216;2023-09-18T08:05:01;24.42;66.52
74224;SHT31;62585;49.706;18.216;2023-09-18T08:07:27;24.65;66.50
74224;SHT31;62585;49.706;18.216;2023-09-18T08:09:54;24.55;66.04
74224;SHT31;62585;49.706;18.216;2023-09-18T08:12:20;24.35;66.82
74224;SHT31;62585;49.706;18.216;2023-09-18T08:14:46;24.93;65.72
74224;SHT31;62585;49.706;18.216;2023-09-18T08:17:12;24.95;65.45
74224;SHT31;62585;49.706;18.216;2023-09-18T08:19:38;25.02;66.00
74224;SHT31;62585;49.706;18.216;2023-09-18T08:22:05;25.28;64.93
74224;SHT31;62585;49.706;18.216;2023-09-18T08:24:31;25.26;64.45
74224;SHT31;62585;49.706;18.216;2023-09-18T08:26:57;25.22;64.84
74224;SHT31;62585;49.706;18.216;2023-09-18T08:29:23;25.48;63.81
74224;SHT31;62585;49.706;18.216;2023-09-18T08:31:49;25.63;64.35
74224;SHT31;62585;49.706;18.216;2023-09-18T08:34:16;25.92;63.60
74224;SHT31;62585;49.706;18.216;2023-09-18T08:36:42;26.12;61.55
74224;SHT31;62585;49.706;18.216;2023-09-18T08:39:08;26.19;61.34
74224;SHT31;62585;49.706;18.216;2023-09-18T08:41:38;26.32;58.35
74224;SHT31;62585;49.706;18.216;2023-09-18T08:44:08;26.30;56.66
74224;SHT31;62585;49.706;18.216;2023-09-18T08:46:36;26.39;57.53
74224;SHT31;62585;49.706;18.216;2023-09-18T08:49:03;26.19;57.16
74224;SHT31;62585;49.706;18.216;2023-09-18T08:51:30;26.29;56.61
74224;SHT31;62585;49.706;18.216;2023-09-18T08:53:57;26.23;56.91
74224;SHT31;62585;49.706;18.216;2023-09-18T08:56:23;26.22;56.50
74224;SHT31;62585;49.706;18.216;2023-09-18T08:58:49;26.26;56.82
74224;SHT31;62585;49.706;18.216;2023-09-18T09:01:15;26.16;55.89
74224;SHT31;62585;49.706;18.216;2023-09-18T09:03:42;25.91;56.90
74224;SHT31;62585;49.706;18.216;2023-09-18T09:06:09;25.77;56.66
74224;SHT31;62585;49.706;18.216;2023-09-18T09:08:36;25.75;56.85
74224;SHT31;62585;49.706;18.216;2023-09-18T09:11:03;25.82;56.98
74224;SHT31;62585;49.706;18.216;2023-09-18T09:13:29;25.82;57.37
74224;SHT31;62585;49.706;18.216;2023-09-18T09:15:57;26.12;56.54
74224;SHT31;62585;49.706;18.216;2023-09-18T09:18:25;26.44;55.65
74224;SHT31;62585;49.706;18.216;2023-09-18T09:21:02;26.43;56.53
74224;SHT31;62585;49.706;18.216;2023-09-18T09:23:51;26.60;55.66
74224;SHT31;62585;49.706;18.216;2023-09-18T09:26:19;26.80;55.79
74224;SHT31;62585;49.706;18.216;2023-09-18T09:28:46;26.54;54.73
74224;SHT31;62585;49.706;18.216;2023-09-18T09:31:23;26.51;55.70
74224;SHT31;62585;49.706;18.216;2023-09-18T09:33:52;26.57;55.63
74224;SHT31;62585;49.706;18.216;2023-09-18T09:36:22;26.44;54.33
74224;SHT31;62585;49.706;18.216;2023-09-18T09:38:54;26.56;54.70
74224;SHT31;62585;49.706;18.216;2023-09-18T09:41:22;26.53;55.17
74224;SHT31;62585;49.706;18.216;2023-09-18T09:43:48;26.49;55.24
74224;SHT31;62585;49.706;18.216;2023-09-18T09:46:16;26.73;54.57
74224;SHT31;62585;49.706;18.216;2023-09-18T09:49:02;26.67;53.45
74224;SHT31;62585;49.706;18.216;2023-09-18T09:51:29;26.78;54.68
74224;SHT31;62585;49.706;18.216;2023-09-18T09:53:55;26.70;54.14
74224;SHT31;62585;49.706;18.216;2023-09-18T09:56:46;26.77;54.31
74224;SHT31;62585;49.706;18.216;2023-09-18T09:59:15;26.84;53.68
74224;SHT31;62585;49.706;18.216;2023-09-18T10:01:41;26.77;53.25
74224;SHT31;62585;49.706;18.216;2023-09-18T10:04:16;26.59;53.94
74224;SHT31;62585;49.706;18.216;2023-09-18T10:06:47;26.51;53.95
74224;SHT31;62585;49.706;18.216;2023-09-18T10:09:17;26.56;54.37
74224;SHT31;62585;49.706;18.216;2023-09-18T10:11:48;26.54;53.73
74224;SHT31;62585;49.706;18.216;2023-09-18T10:14:28;26.43;53.14
74224;SHT31;62585;49.706;18.216;2023-09-18T10:16:56;26.53;54.38
74224;SHT31;62585;49.706;18.216;2023-09-18T10:21:58;26.99;52.64
74224;SHT31;62585;49.706;18.216;2023-09-18T10:24:33;26.86;52.24
74224;SHT31;62585;49.706;18.216;2023-09-18T10:27:01;27.01;52.03
74224;SHT31;62585;49.706;18.216;2023-09-18T10:29:36;27.12;52.31
74224;SHT31;62585;49.706;18.216;2023-09-18T10:32:06;26.84;53.35
74224;SHT31;62585;49.706;18.216;2023-09-18T10:34:36;26.94;52.93
74224;SHT31;62585;49.706;18.216;2023-09-18T10:37:03;27.15;53.21
74224;SHT31;62585;49.706;18.216;2023-09-18T10:39:37;27.32;51.47
74224;SHT31;62585;49.706;18.216;2023-09-18T10:42:07;27.52;52.39
74224;SHT31;62585;49.706;18.216;2023-09-18T10:44:34;27.36;50.99
74224;SHT31;62585;49.706;18.216;2023-09-18T10:47:01;27.42;51.88
74224;SHT31;62585;49.706;18.216;2023-09-18T10:49:28;27.63;51.22
74224;SHT31;62585;49.706;18.216;2023-09-18T10:51:55;27.87;50.90
74224;SHT31;62585;49.706;18.216;2023-09-18T10:54:23;27.46;51.02
74224;SHT31;62585;49.706;18.216;2023-09-18T10:56:50;27.28;52.08
74224;SHT31;62585;49.706;18.216;2023-09-18T10:59:16;27.49;51.92
74224;SHT31;62585;49.706;18.216;2023-09-18T11:01:43;27.63;51.44
74224;SHT31;62585;49.706;18.216;2023-09-18T11:04:10;27.63;51.33
74224;SHT31;62585;49.706;18.216;2023-09-18T11:09:26;27.84;50.22
74224;SHT31;62585;49.706;18.216;2023-09-18T11:11:53;27.90;50.24
74224;SHT31;62585;49.706;18.216;2023-09-18T11:14:23;28.00;50.57
74224;SHT31;62585;49.706;18.216;2023-09-18T11:16:49;27.93;49.87
74224;SHT31;62585;49.706;18.216;2023-09-18T11:19:18;28.15;49.40
74224;SHT31;62585;49.706;18.216;2023-09-18T11:21:47;28.02;49.62
74224;SHT31;62585;49.706;18.216;2023-09-18T11:24:20;28.22;49.98
74224;SHT31;62585;49.706;18.216;2023-09-18T11:26:48;28.18;49.14
74224;SHT31;62585;49.706;18.216;2023-09-18T11:29:16;28.02;49.70
74224;SHT31;62585;49.706;18.216;2023-09-18T11:31:49;28.12;50.53
74224;SHT31;62585;49.706;18.216;2023-09-18T11:34:29;27.96;49.36
74224;SHT31;62585;49.706;18.216;2023-09-18T11:37:01;28.18;48.88
74224;SHT31;62585;49.706;18.216;2023-09-18T11:39:34;28.00;49.41
74224;SHT31;62585;49.706;18.216;2023-09-18T11:42:10;27.93;49.32
74224;SHT31;62585;49.706;18.216;2023-09-18T11:44:37;27.86;49.89
74224;SHT31;62585;49.706;18.216;2023-09-18T11:47:15;27.79;50.16
74224;SHT31;62585;49.706;18.216;2023-09-18T11:50:09;28.00;49.99
74224;SHT31;62585;49.706;18.216;2023-09-18T11:52:37;27.77;49.46
74224;SHT31;62585;49.706;18.216;2023-09-18T11:55:03;27.74;48.30
74224;SHT31;62585;49.706;18.216;2023-09-18T11:57:29;27.59;48.92
74224;SHT31;62585;49.706;18.216;2023-09-18T12:00:01;27.45;49.50
74224;SHT31;62585;49.706;18.216;2023-09-18T12:02:38;27.46;49.73
74224;SHT31;62585;49.706;18.216;2023-09-18T12:05:14;27.49;50.48
74224;SHT31;62585;49.706;18.216;2023-09-18T12:07:43;27.84;49.69
74224;SHT31;62585;49.706;18.216;2023-09-18T12:10:11;28.14;48.89
74224;SHT31;62585;49.706;18.216;2023-09-18T12:12:37;28.34;48.49
74224;SHT31;62585;49.706;18.216;2023-09-18T12:15:04;28.44;48.52
74224;SHT31;62585;49.706;18.216;2023-09-18T12:17:30;28.29;48.56
74224;SHT31;62585;49.706;18.216;2023-09-18T12:19:56;28.39;47.98
74224;SHT31;62585;49.706;18.216;2023-09-18T12:22:29;28.11;47.84
74224;SHT31;62585;49.706;18.216;2023-09-18T12:25:13;28.18;48.02
74224;SHT31;62585;49.706;18.216;2023-09-18T12:27:42;28.11;47.75
74224;SHT31;62585;49.706;18.216;2023-09-18T12:30:09;28.34;47.70
74224;SHT31;62585;49.706;18.216;2023-09-18T12:32:39;28.60;46.87
74224;SHT31;62585;49.706;18.216;2023-09-18T12:35:08;28.65;47.20
74224;SHT31;62585;49.706;18.216;2023-09-18T12:37:39;28.44;47.09
74224;SHT31;62585;49.706;18.216;2023-09-18T12:40:28;28.22;47.79
74224;SHT31;62585;49.706;18.216;2023-09-18T12:42:55;28.51;46.92
74224;SHT31;62585;49.706;18.216;2023-09-18T12:45:23;28.60;46.79
74224;SHT31;62585;49.706;18.216;2023-09-18T12:47:49;28.21;47.16
74224;SHT31;62585;49.706;18.216;2023-09-18T12:50:16;27.80;47.27
74224;SHT31;62585;49.706;18.216;2023-09-18T12:52:41;27.91;47.87
74224;SHT31;62585;49.706;18.216;2023-09-18T12:55:08;27.94;47.34
74224;SHT31;62585;49.706;18.216;2023-09-18T12:57:34;27.98;47.23
74224;SHT31;62585;49.706;18.216;2023-09-18T13:00:08;27.83;47.43
74224;SHT31;62585;49.706;18.216;2023-09-18T13:02:37;27.90;47.11
74224;SHT31;62585;49.706;18.216;2023-09-18T13:05:04;27.97;47.34
74224;SHT31;62585;49.706;18.216;2023-09-18T13:07:30;28.14;47.22
74224;SHT31;62585;49.706;18.216;2023-09-18T13:09:59;27.93;47.15
74224;SHT31;62585;49.706;18.216;2023-09-18T13:12:51;27.90;47.88
74224;SHT31;62585;49.706;18.216;2023-09-18T13:15:31;28.22;46.49
74224;SHT31;62585;49.706;18.216;2023-09-18T13:18:00;28.08;46.43
74224;SHT31;62585;49.706;18.216;2023-09-18T13:20:28;27.67;47.17
74224;SHT31;62585;49.706;18.216;2023-09-18T13:22:56;27.80;47.54
74224;SHT31;62585;49.706;18.216;2023-09-18T13:25:25;28.00;47.16
74224;SHT31;62585;49.706;18.216;2023-09-18T13:27:52;27.94;48.17
74224;SHT31;62585;49.706;18.216;2023-09-18T13:30:19;28.08;47.70
74224;SHT31;62585;49.706;18.216;2023-09-18T13:32:48;28.29;46.81
74224;SHT31;62585;49.706;18.216;2023-09-18T13:35:18;28.11;46.95
74224;SHT31;62585;49.706;18.216;2023-09-18T13:37:44;28.28;46.77
74224;SHT31;62585;49.706;18.216;2023-09-18T13:40:11;28.25;46.62
74224;SHT31;62585;49.706;18.216;2023-09-18T13:42:38;28.22;47.19
74224;SHT31;62585;49.706;18.216;2023-09-18T13:45:05;28.02;47.65
74224;SHT31;62585;49.706;18.216;2023-09-18T13:47:34;28.20;46.86
74224;SHT31;62585;49.706;18.216;2023-09-18T13:50:03;28.10;47.00
74224;SHT31;62585;49.706;18.216;2023-09-18T13:52:31;27.76;47.81
74224;SHT31;62585;49.706;18.216;2023-09-18T13:54:57;27.45;48.38
74224;SHT31;62585;49.706;18.216;2023-09-18T13:57:23;27.09;48.59
74224;SHT31;62585;49.706;18.216;2023-09-18T13:59:50;27.16;49.32
74224;SHT31;62585;49.706;18.216;2023-09-18T14:02:16;26.98;49.75
74224;SHT31;62585;49.706;18.216;2023-09-18T14:04:42;27.25;49.73
74224;SHT31;62585;49.706;18.216;2023-09-18T14:07:09;27.39;49.16
74224;SHT31;62585;49.706;18.216;2023-09-18T14:09:41;27.57;48.17
74224;SHT31;62585;49.706;18.216;2023-09-18T14:24:33;27.86;47.94
74224;SHT31;62585;49.706;18.216;2023-09-18T14:27:01;27.76;48.45
74224;SHT31;62585;49.706;18.216;2023-09-18T14:29:27;27.96;48.42
74224;SHT31;62585;49.706;18.216;2023-09-18T14:31:53;27.87;48.06
74224;SHT31;62585;49.706;18.216;2023-09-18T14:34:19;27.80;48.07
74224;SHT31;62585;49.706;18.216;2023-09-18T14:36:45;27.74;48.34
74224;SHT31;62585;49.706;18.216;2023-09-18T14:39:11;27.81;48.12
74224;SHT31;62585;49.706;18.216;2023-09-18T14:41:38;27.84;48.42
74224;SHT31;62585;49.706;18.216;2023-09-18T14:44:05;27.66;48.61
74224;SHT31;62585;49.706;18.216;2023-09-18T14:46:32;27.38;49.42
74224;SHT31;62585;49.706;18.216;2023-09-18T14:49:04;27.38;49.14
74224;SHT31;62585;49.706;18.216;2023-09-18T14:51:30;27.33;49.76
74224;SHT31;62585;49.706;18.216;2023-09-18T14:54:01;27.45;49.29
74224;SHT31;62585;49.706;18.216;2023-09-18T14:56:28;27.47;49.11
74224;SHT31;62585;49.706;18.216;2023-09-18T14:58:53;27.69;49.68
74224;SHT31;62585;49.706;18.216;2023-09-18T15:01:22;27.71;49.76
74224;SHT31;62585;49.706;18.216;2023-09-18T15:03:48;27.83;49.16
74224;SHT31;62585;49.706;18.216;2023-09-18T15:06:15;28.12;49.06
74224;SHT31;62585;49.706;18.216;2023-09-18T15:08:41;28.38;48.88
74224;SHT31;62585;49.706;18.216;2023-09-18T15:11:06;28.48;48.46
74224;SHT31;62585;49.706;18.216;2023-09-18T15:13:33;28.35;48.48
74224;SHT31;62585;49.706;18.216;2023-09-18T15:16:01;28.14;48.36
74224;SHT31;62585;49.706;18.216;2023-09-18T15:18:27;27.66;48.75
74224;SHT31;62585;49.706;18.216;2023-09-18T15:20:53;27.74;49.20
74224;SHT31;62585;49.706;18.216;2023-09-18T15:23:25;27.41;49.30
74224;SHT31;62585;49.706;18.216;2023-09-18T15:25:51;27.21;49.48
74224;SHT31;62585;49.706;18.216;2023-09-18T15:28:19;27.31;49.87
74224;SHT31;62585;49.706;18.216;2023-09-18T15:30:50;27.09;50.05
74224;SHT31;62585;49.706;18.216;2023-09-18T15:33:17;27.26;49.91
74224;SHT31;62585;49.706;18.216;2023-09-18T15:35:43;27.74;48.78
74224;SHT31;62585;49.706;18.216;2023-09-18T15:38:09;27.69;49.19